createdAt,value
2023-02-08T00:00:40.496Z,7.24
2023-02-08T00:01:43.429Z,10.41
2023-02-08T00:02:46.253Z,6.32
2023-02-08T00:03:49.014Z,8.48
2023-02-08T00:04:51.836Z,8.04
2023-02-08T00:05:54.615Z,7.04
2023-02-08T00:06:57.411Z,7.12
2023-02-08T00:07:59.952Z,6.26
2023-02-08T00:09:02.530Z,7.65
2023-02-08T00:10:05.498Z,6.72
2023-02-08T00:11:08.269Z,5.68
2023-02-08T00:12:11.355Z,8.60
2023-02-08T00:13:14.039Z,6.77
2023-02-08T00:14:16.887Z,6.22
2023-02-08T00:15:19.779Z,5.94
2023-02-08T00:16:22.668Z,8.42
2023-02-08T00:17:25.418Z,8.65
2023-02-08T00:18:28.207Z,9.14
2023-02-08T00:19:30.953Z,8.00
2023-02-08T00:20:33.842Z,9.72
2023-02-08T00:21:36.697Z,5.02
2023-02-08T00:22:39.788Z,7.84
2023-02-08T00:23:42.551Z,6.85
2023-02-08T00:24:45.455Z,9.83
2023-02-08T00:25:48.096Z,7.35
2023-02-08T00:26:50.764Z,7.34
2023-02-08T00:27:53.509Z,7.18
2023-02-08T00:28:56.320Z,10.92
2023-02-08T00:29:59.096Z,6.19
2023-02-08T00:31:01.750Z,8.49
2023-02-08T00:32:04.654Z,9.29
2023-02-08T00:33:07.294Z,5.98
2023-02-08T00:34:10.193Z,6.71
2023-02-08T00:35:13.047Z,7.83
2023-02-08T00:36:15.811Z,8.62
2023-02-08T00:37:18.796Z,9.02
2023-02-08T00:38:21.677Z,7.68
2023-02-08T00:39:24.669Z,6.23
2023-02-08T00:40:27.533Z,8.92
2023-02-08T00:41:30.398Z,8.30
2023-02-08T00:42:33.170Z,7.36
2023-02-08T00:43:35.959Z,9.88
2023-02-08T00:44:38.494Z,8.83
2023-02-08T00:45:41.474Z,7.60
2023-02-08T00:46:44.074Z,5.70
2023-02-08T00:47:46.975Z,6.17
2023-02-08T00:48:49.997Z,6.85
2023-02-08T00:49:52.671Z,6.02
2023-02-08T00:50:55.336Z,6.48
2023-02-08T00:51:58.227Z,7.13
2023-02-08T00:53:00.906Z,8.15
2023-02-08T00:54:03.652Z,6.87
2023-02-08T00:55:06.334Z,7.24
2023-02-08T00:56:08.898Z,8.99
2023-02-08T00:57:11.678Z,7.59
2023-02-08T00:58:14.648Z,5.88
2023-02-08T00:59:17.553Z,6.17
2023-02-08T01:00:20.515Z,7.46
2023-02-08T01:01:23.273Z,7.96
2023-02-08T01:02:25.947Z,8.86
2023-02-08T01:03:28.808Z,5.95
2023-02-08T01:04:31.503Z,6.83
2023-02-08T01:05:34.261Z,8.25
2023-02-08T01:06:36.929Z,7.41
2023-02-08T01:07:39.701Z,9.82
2023-02-08T01:08:42.417Z,9.33
2023-02-08T01:09:45.243Z,10.49
2023-02-08T01:10:47.812Z,9.75
2023-02-08T01:11:50.391Z,7.26
2023-02-08T01:12:55.513Z,5.21
2023-02-08T01:13:57.152Z,8.36
2023-02-08T01:14:59.815Z,6.22
2023-02-08T01:16:02.750Z,7.39
2023-02-08T01:17:05.574Z,9.51
2023-02-08T01:18:08.437Z,9.15
2023-02-08T01:19:11.112Z,7.95
2023-02-08T01:20:13.892Z,7.47
2023-02-08T01:21:16.772Z,6.85
2023-02-08T01:22:19.528Z,6.25
2023-02-08T01:23:22.307Z,9.34
2023-02-08T01:24:25.071Z,9.61
2023-02-08T01:25:28.123Z,9.58
2023-02-08T01:26:31.033Z,8.45
2023-02-08T01:27:33.901Z,7.41
2023-02-08T01:28:36.624Z,7.45
2023-02-08T01:29:39.149Z,8.51
2023-02-08T01:30:42.505Z,7.24
2023-02-08T01:31:45.178Z,7.24
2023-02-08T01:32:47.771Z,8.69
2023-02-08T01:33:50.539Z,4.76
2023-02-08T01:34:53.409Z,7.83
2023-02-08T01:35:56.292Z,6.32
2023-02-08T01:36:58.954Z,6.78
2023-02-08T01:38:01.629Z,7.16
2023-02-08T01:39:04.203Z,8.58
2023-02-08T01:40:06.754Z,5.89
2023-02-08T01:41:09.547Z,6.52
2023-02-08T01:42:12.207Z,6.52
2023-02-08T01:43:14.970Z,8.51
2023-02-08T01:44:17.642Z,7.93
2023-02-08T01:45:20.544Z,5.26
2023-02-08T01:46:23.494Z,5.77
2023-02-08T01:47:26.266Z,5.42
2023-02-08T01:48:29.140Z,4.83
2023-02-08T01:49:32.023Z,6.69
2023-02-08T01:50:34.910Z,6.87
2023-02-08T01:51:37.972Z,6.46
2023-02-08T01:52:40.650Z,11.03
2023-02-08T01:53:43.321Z,5.07
2023-02-08T01:54:45.892Z,8.36
2023-02-08T01:55:48.967Z,7.84
2023-02-08T01:56:51.648Z,7.54
2023-02-08T01:57:54.195Z,8.00
2023-02-08T01:58:56.867Z,6.34
2023-02-08T01:59:59.566Z,6.36
2023-02-08T02:01:02.474Z,7.06
2023-02-08T02:02:05.227Z,4.23
2023-02-08T02:03:07.842Z,5.47
2023-02-08T02:04:10.575Z,6.28
2023-02-08T02:05:13.194Z,6.20
2023-02-08T02:06:15.871Z,6.52
2023-02-08T02:07:18.752Z,6.21
2023-02-08T02:08:21.315Z,6.85
2023-02-08T02:09:23.983Z,5.60
2023-02-08T02:10:26.661Z,5.51
2023-02-08T02:11:29.845Z,7.78
2023-02-08T02:12:32.940Z,6.63
2023-02-08T02:13:36.817Z,6.35
2023-02-08T02:14:39.375Z,10.48
2023-02-08T02:15:41.954Z,10.36
2023-02-08T02:16:44.875Z,7.10
2023-02-08T02:17:47.998Z,8.00
2023-02-08T02:18:50.759Z,9.38
2023-02-08T02:19:53.634Z,9.42
2023-02-08T02:20:56.355Z,7.42
2023-02-08T02:21:58.873Z,6.66
2023-02-08T02:23:01.869Z,5.33
2023-02-08T02:24:04.420Z,8.24
2023-02-08T02:25:07.095Z,7.26
2023-02-08T02:26:10.485Z,6.72
2023-02-08T02:27:13.246Z,7.52
2023-02-08T02:28:16.402Z,6.94
2023-02-08T02:29:19.201Z,5.71
2023-02-08T02:30:21.974Z,7.22
2023-02-08T02:31:24.845Z,8.04
2023-02-08T02:32:27.739Z,6.31
2023-02-08T02:33:30.704Z,7.72
2023-02-08T02:34:33.372Z,6.85
2023-02-08T02:35:36.337Z,7.24
2023-02-08T02:36:39.020Z,9.23
2023-02-08T02:37:41.890Z,6.78
2023-02-08T02:38:44.972Z,7.95
2023-02-08T02:39:47.777Z,10.16
2023-02-08T02:40:50.318Z,6.03
2023-02-08T02:41:53.091Z,6.77
2023-02-08T02:42:55.766Z,6.18
2023-02-08T02:43:58.427Z,6.89
2023-02-08T02:45:01.239Z,6.94
2023-02-08T02:46:03.928Z,6.43
2023-02-08T02:47:06.533Z,7.66
2023-02-08T02:48:09.317Z,7.62
2023-02-08T02:49:12.594Z,7.30
2023-02-08T02:50:15.171Z,7.83
2023-02-08T02:51:17.562Z,6.38
2023-02-08T02:52:20.498Z,9.88
2023-02-08T02:53:23.274Z,7.83
2023-02-08T02:54:25.943Z,8.78
2023-02-08T02:55:28.725Z,8.85
2023-02-08T02:56:31.616Z,7.74
2023-02-08T02:57:34.160Z,7.75
2023-02-08T02:58:37.060Z,8.21
2023-02-08T02:59:39.711Z,7.18
2023-02-08T03:00:42.659Z,9.03
2023-02-08T03:01:45.458Z,6.43
2023-02-08T03:02:48.021Z,6.00
2023-02-08T03:03:50.984Z,5.88
2023-02-08T03:04:54.085Z,5.56
2023-02-08T03:05:56.649Z,6.50
2023-02-08T03:06:59.433Z,8.22
2023-02-08T03:08:02.205Z,5.62
2023-02-08T03:09:05.085Z,8.75
2023-02-08T03:10:08.148Z,9.52
2023-02-08T03:11:10.711Z,5.29
2023-02-08T03:12:13.402Z,5.84
2023-02-08T03:13:16.562Z,6.93
2023-02-08T03:14:19.438Z,6.89
2023-02-08T03:15:22.422Z,6.46
2023-02-08T03:16:25.097Z,7.87
2023-02-08T03:17:27.857Z,6.72
2023-02-08T03:18:30.656Z,7.05
2023-02-08T03:19:33.319Z,7.04
2023-02-08T03:20:36.297Z,7.92
2023-02-08T03:21:39.054Z,7.61
2023-02-08T03:22:41.926Z,6.96
2023-02-08T03:23:44.700Z,8.32
2023-02-08T03:24:47.582Z,10.25
2023-02-08T03:25:50.437Z,10.56
2023-02-08T03:26:53.254Z,6.72
2023-02-08T03:27:56.048Z,7.75
2023-02-08T03:28:58.798Z,7.12
2023-02-08T03:30:01.676Z,7.72
2023-02-08T03:31:04.474Z,8.60
2023-02-08T03:32:07.181Z,8.10
2023-02-08T03:33:11.819Z,6.20
2023-02-08T03:34:14.378Z,6.97
2023-02-08T03:35:17.138Z,6.06
2023-02-08T03:36:20.142Z,6.71
2023-02-08T03:37:22.964Z,6.08
2023-02-08T03:38:25.767Z,10.17
2023-02-08T03:39:28.544Z,4.88
2023-02-08T03:40:31.533Z,6.56
2023-02-08T03:41:34.383Z,6.60
2023-02-08T03:42:37.261Z,5.42
2023-02-08T03:43:40.148Z,8.01
2023-02-08T03:44:42.902Z,6.99
2023-02-08T03:45:45.810Z,9.41
2023-02-08T03:46:48.862Z,10.82
2023-02-08T03:47:51.545Z,7.92
2023-02-08T03:48:54.246Z,8.19
2023-02-08T03:49:56.982Z,10.78
2023-02-08T03:50:59.555Z,9.78
2023-02-08T03:52:02.222Z,13.68
2023-02-08T03:53:04.786Z,10.38
2023-02-08T03:54:07.451Z,9.95
2023-02-08T03:55:10.016Z,12.06
2023-02-08T03:56:12.684Z,13.74
2023-02-08T03:57:15.479Z,12.98
2023-02-08T03:58:18.164Z,12.24
2023-02-08T03:59:20.922Z,10.65
2023-02-08T04:00:23.989Z,10.47
2023-02-08T04:01:26.771Z,11.23
2023-02-08T04:02:29.952Z,8.07
2023-02-08T04:03:33.125Z,10.60
2023-02-08T04:04:35.890Z,7.95
2023-02-08T04:05:38.757Z,11.73
2023-02-08T04:06:41.328Z,12.02
2023-02-08T04:07:44.106Z,14.03
2023-02-08T04:08:46.982Z,14.32
2023-02-08T04:09:49.741Z,10.90
2023-02-08T04:10:52.554Z,14.28
2023-02-08T04:11:55.395Z,13.66
2023-02-08T04:12:58.156Z,12.55
2023-02-08T04:14:00.939Z,13.77
2023-02-08T04:15:03.515Z,13.40
2023-02-08T04:16:06.216Z,12.39
2023-02-08T04:17:09.154Z,11.78
2023-02-08T04:18:11.819Z,11.88
2023-02-08T04:19:14.709Z,13.82
2023-02-08T04:20:17.284Z,13.92
2023-02-08T04:21:19.828Z,9.89
2023-02-08T04:22:22.392Z,8.62
2023-02-08T04:23:25.070Z,11.08
2023-02-08T04:24:27.972Z,10.98
2023-02-08T04:25:30.517Z,11.72
2023-02-08T04:26:33.274Z,8.97
2023-02-08T04:27:36.470Z,8.72
2023-02-08T04:28:39.139Z,12.62
2023-02-08T04:29:41.920Z,12.18
2023-02-08T04:30:44.751Z,11.52
2023-02-08T04:31:47.589Z,11.28
2023-02-08T04:32:50.347Z,11.57
2023-02-08T04:33:53.319Z,8.97
2023-02-08T04:34:56.178Z,9.20
2023-02-08T04:35:58.861Z,10.18
2023-02-08T04:37:01.548Z,12.02
2023-02-08T04:38:04.297Z,10.75
2023-02-08T04:39:07.366Z,7.16
2023-02-08T04:40:10.046Z,5.23
2023-02-08T04:41:12.703Z,8.76
2023-02-08T04:42:15.375Z,8.84
2023-02-08T04:43:18.058Z,8.87
2023-02-08T04:44:20.757Z,7.60
2023-02-08T04:45:23.284Z,7.32
2023-02-08T04:46:26.204Z,9.15
2023-02-08T04:47:28.831Z,6.99
2023-02-08T04:48:31.497Z,9.17
2023-02-08T04:49:34.183Z,11.34
2023-02-08T04:50:36.633Z,8.85
2023-02-08T04:51:39.323Z,9.31
2023-02-08T04:52:42.188Z,8.91
2023-02-08T04:53:44.978Z,7.93
2023-02-08T04:54:48.043Z,9.04
2023-02-08T04:55:50.703Z,8.89
2023-02-08T04:56:53.381Z,11.16
2023-02-08T04:57:56.053Z,10.83
2023-02-08T04:58:58.709Z,8.42
2023-02-08T05:00:01.378Z,9.16
2023-02-08T05:01:03.951Z,9.66
2023-02-08T05:02:06.620Z,7.20
2023-02-08T05:03:09.513Z,9.92
2023-02-08T05:04:12.067Z,8.47
2023-02-08T05:05:15.300Z,10.18
2023-02-08T05:06:17.934Z,8.70
2023-02-08T05:07:20.696Z,9.93
2023-02-08T05:08:23.254Z,9.48
2023-02-08T05:09:25.832Z,11.44
2023-02-08T05:10:28.485Z,10.71
2023-02-08T05:11:31.180Z,11.68
2023-02-08T05:12:33.836Z,7.12
2023-02-08T05:13:36.396Z,10.07
2023-02-08T05:14:39.163Z,10.98
2023-02-08T05:15:42.060Z,8.57
2023-02-08T05:16:44.917Z,7.43
2023-02-08T05:17:47.690Z,7.29
2023-02-08T05:18:50.458Z,8.43
2023-02-08T05:19:53.139Z,7.34
2023-02-08T05:20:55.921Z,7.74
2023-02-08T05:21:58.465Z,6.05
2023-02-08T05:23:01.142Z,6.72
2023-02-08T05:24:03.850Z,8.20
2023-02-08T05:25:06.445Z,10.14
2023-02-08T05:26:09.156Z,8.34
2023-02-08T05:27:12.022Z,7.78
2023-02-08T05:28:14.867Z,8.00
2023-02-08T05:29:17.576Z,7.83
2023-02-08T05:30:20.447Z,8.13
2023-02-08T05:31:23.522Z,9.73
2023-02-08T05:32:26.103Z,10.52
2023-02-08T05:33:28.657Z,10.79
2023-02-08T05:34:31.241Z,19.18
2023-02-08T05:35:33.804Z,7.08
2023-02-08T05:36:37.405Z,6.85
2023-02-08T05:37:39.974Z,10.11
2023-02-08T05:38:42.730Z,9.41
2023-02-08T05:39:45.468Z,10.62
2023-02-08T05:40:48.320Z,8.64
2023-02-08T05:41:50.942Z,8.72
2023-02-08T05:42:53.633Z,8.55
2023-02-08T05:43:56.096Z,8.07
2023-02-08T05:44:58.890Z,9.42
2023-02-08T05:46:01.729Z,8.02
2023-02-08T05:47:04.651Z,8.09
2023-02-08T05:48:07.377Z,5.97
2023-02-08T05:49:10.039Z,7.62
2023-02-08T05:50:12.693Z,8.12
2023-02-08T05:51:15.505Z,7.33
2023-02-08T05:52:18.155Z,6.15
2023-02-08T05:53:21.029Z,6.85
2023-02-08T05:54:23.810Z,9.03
2023-02-08T05:55:26.598Z,10.02
2023-02-08T05:56:29.152Z,8.84
2023-02-08T05:57:34.279Z,8.38
2023-02-08T05:58:36.136Z,9.21
2023-02-08T05:59:38.773Z,9.02
2023-02-08T06:00:41.788Z,10.08
2023-02-08T06:01:44.529Z,10.38
2023-02-08T06:02:47.264Z,10.00
2023-02-08T06:03:50.213Z,8.90
2023-02-08T06:04:52.853Z,9.72
2023-02-08T06:05:55.539Z,10.13
2023-02-08T06:06:58.105Z,8.87
2023-02-08T06:08:00.655Z,9.28
2023-02-08T06:09:03.209Z,10.43
2023-02-08T06:10:06.291Z,9.61
2023-02-08T06:11:09.079Z,7.56
2023-02-08T06:12:11.743Z,10.88
2023-02-08T06:13:14.498Z,9.87
2023-02-08T06:14:17.197Z,9.09
2023-02-08T06:15:19.744Z,12.51
2023-02-08T06:16:22.359Z,11.85
2023-02-08T06:17:25.090Z,14.20
2023-02-08T06:18:28.178Z,8.73
2023-02-08T06:19:30.970Z,9.88
2023-02-08T06:20:33.496Z,10.72
2023-02-08T06:21:36.579Z,10.18
2023-02-08T06:22:39.258Z,15.68
2023-02-08T06:23:42.154Z,16.79
2023-02-08T06:24:44.891Z,17.95
2023-02-08T06:25:47.565Z,16.76
2023-02-08T06:26:50.353Z,17.72
2023-02-08T06:27:52.996Z,16.65
2023-02-08T06:28:56.193Z,16.58
2023-02-08T06:29:58.979Z,14.93
2023-02-08T06:31:01.828Z,13.07
2023-02-08T06:32:05.072Z,11.68
2023-02-08T06:33:08.226Z,17.85
2023-02-08T06:34:11.299Z,17.88
2023-02-08T06:35:14.057Z,14.75
2023-02-08T06:36:17.041Z,12.53
2023-02-08T06:37:20.113Z,11.02
2023-02-08T06:38:22.980Z,14.89
2023-02-08T06:39:25.751Z,18.15
2023-02-08T06:40:28.630Z,18.76
2023-02-08T06:41:31.406Z,14.66
2023-02-08T06:42:34.284Z,18.45
2023-02-08T06:43:37.151Z,21.48
2023-02-08T06:44:51.408Z,18.55
2023-02-08T06:45:44.684Z,14.59
2023-02-08T06:46:47.522Z,15.95
2023-02-08T06:47:50.514Z,17.82
2023-02-08T06:48:53.472Z,15.85
2023-02-08T06:49:56.350Z,18.08
2023-02-08T06:50:59.534Z,16.01
2023-02-08T06:52:02.313Z,14.56
2023-02-08T06:53:05.134Z,18.25
2023-02-08T06:54:07.969Z,15.72
2023-02-08T06:55:11.149Z,14.18
2023-02-08T06:56:14.127Z,14.82
2023-02-08T06:57:16.880Z,15.19
2023-02-08T06:58:19.863Z,15.28
2023-02-08T06:59:22.528Z,14.46
2023-02-08T07:00:25.095Z,14.09
2023-02-08T07:01:27.743Z,15.38
2023-02-08T07:02:30.397Z,15.96
2023-02-08T07:03:33.132Z,16.48
2023-02-08T07:04:36.125Z,15.98
2023-02-08T07:05:39.062Z,16.37
2023-02-08T07:06:41.840Z,11.69
2023-02-08T07:07:44.392Z,14.25
2023-02-08T07:08:47.165Z,17.53
2023-02-08T07:09:50.070Z,12.48
2023-02-08T07:10:52.714Z,14.09
2023-02-08T07:11:55.318Z,14.85
2023-02-08T07:12:58.152Z,17.30
2023-02-08T07:14:01.068Z,13.75
2023-02-08T07:15:03.815Z,12.43
2023-02-08T07:16:06.725Z,11.74
2023-02-08T07:17:09.612Z,12.16
2023-02-08T07:18:12.125Z,14.86
2023-02-08T07:19:14.784Z,14.36
2023-02-08T07:20:17.472Z,14.08
2023-02-08T07:21:20.248Z,13.57
2023-02-08T07:22:25.578Z,15.17
2023-02-08T07:23:28.252Z,16.72
2023-02-08T07:24:31.225Z,15.65
2023-02-08T07:25:36.773Z,15.08
2023-02-08T07:26:39.633Z,14.00
2023-02-08T07:27:42.197Z,14.67
2023-02-08T07:28:45.085Z,16.50
2023-02-08T07:29:47.947Z,16.17
2023-02-08T07:30:50.566Z,16.71
2023-02-08T07:31:53.199Z,14.73
2023-02-08T07:32:55.897Z,12.03
2023-02-08T07:33:58.431Z,15.74
2023-02-08T07:35:01.097Z,13.35
2023-02-08T07:36:03.685Z,16.41
2023-02-08T07:37:06.432Z,13.68
2023-02-08T07:38:09.314Z,12.76
2023-02-08T07:39:12.252Z,11.28
2023-02-08T07:40:14.858Z,11.92
2023-02-08T07:41:17.531Z,13.04
2023-02-08T07:42:20.290Z,15.29
2023-02-08T07:43:23.080Z,13.90
2023-02-08T07:44:26.282Z,13.84
2023-02-08T07:45:29.123Z,15.31
2023-02-08T07:46:31.916Z,16.00
2023-02-08T07:47:34.677Z,11.95
2023-02-08T07:48:40.145Z,13.29
2023-02-08T07:49:42.173Z,13.33
2023-02-08T07:50:44.731Z,14.13
2023-02-08T07:51:47.397Z,14.82
2023-02-08T07:52:50.177Z,13.61
2023-02-08T07:53:52.949Z,13.13
2023-02-08T07:54:55.659Z,10.67
2023-02-08T07:55:58.115Z,11.42
2023-02-08T07:57:03.183Z,13.28
2023-02-08T07:58:04.971Z,12.61
2023-02-08T07:59:07.817Z,10.88
2023-02-08T08:00:10.486Z,9.27
2023-02-08T08:01:22.068Z,11.15
2023-02-08T08:02:17.576Z,11.31
2023-02-08T08:03:20.161Z,12.36
2023-02-08T08:04:22.813Z,11.38
2023-02-08T08:05:25.582Z,12.72
2023-02-08T08:06:33.685Z,13.27
2023-02-08T08:07:36.458Z,15.17
2023-02-08T08:08:39.121Z,13.45
2023-02-08T08:09:41.877Z,14.69
2023-02-08T08:10:44.396Z,11.97
2023-02-08T08:11:47.135Z,14.36
2023-02-08T08:12:49.806Z,10.54
2023-02-08T08:13:52.581Z,9.73
2023-02-08T08:14:55.139Z,10.85
2023-02-08T08:15:57.836Z,9.43
2023-02-08T08:17:00.588Z,10.60
2023-02-08T08:18:03.184Z,8.67
2023-02-08T08:19:06.045Z,10.72
2023-02-08T08:20:08.696Z,8.62
2023-02-08T08:21:11.359Z,10.37
2023-02-08T08:22:14.257Z,8.38
2023-02-08T08:23:16.812Z,10.15
2023-02-08T08:24:19.517Z,9.34
2023-02-08T08:25:22.267Z,11.81
2023-02-08T08:26:24.915Z,14.30
2023-02-08T08:27:27.594Z,10.69
2023-02-08T08:28:30.436Z,12.21
2023-02-08T08:29:33.360Z,12.82
2023-02-08T08:30:35.961Z,14.87
2023-02-08T08:31:38.665Z,12.43
2023-02-08T08:32:44.219Z,12.12
2023-02-08T08:33:47.206Z,11.77
2023-02-08T08:34:49.959Z,12.11
2023-02-08T08:35:52.740Z,12.38
2023-02-08T08:36:55.710Z,11.43
2023-02-08T08:37:58.391Z,13.65
2023-02-08T08:39:01.050Z,13.40
2023-02-08T08:40:03.719Z,15.73
2023-02-08T08:41:06.396Z,15.45
2023-02-08T08:42:09.159Z,12.82
2023-02-08T08:43:11.951Z,14.38
2023-02-08T08:44:14.499Z,13.40
2023-02-08T08:45:17.274Z,12.59
2023-02-08T08:46:20.022Z,13.84
2023-02-08T08:47:22.929Z,13.71
2023-02-08T08:48:25.699Z,12.78
2023-02-08T08:49:28.367Z,12.23
2023-02-08T08:50:31.137Z,16.28
2023-02-08T08:51:33.816Z,13.94
2023-02-08T08:52:36.688Z,13.70
2023-02-08T08:53:39.362Z,13.48
2023-02-08T08:54:42.038Z,11.96
2023-02-08T08:55:45.803Z,12.38
2023-02-08T08:56:48.706Z,11.27
2023-02-08T08:57:51.981Z,14.01
2023-02-08T08:58:54.765Z,15.30
2023-02-08T08:59:57.630Z,14.04
2023-02-08T09:01:00.506Z,17.25
2023-02-08T09:02:03.384Z,12.48
2023-02-08T09:03:06.004Z,13.62
2023-02-08T09:04:08.849Z,14.65
2023-02-08T09:05:11.687Z,15.82
2023-02-08T09:06:15.093Z,16.06
2023-02-08T09:07:18.143Z,13.29
2023-02-08T09:08:21.642Z,10.71
2023-02-08T09:09:24.928Z,8.68
2023-02-08T09:10:27.692Z,12.64
2023-02-08T09:11:30.513Z,11.00
2023-02-08T09:12:33.337Z,12.80
2023-02-08T09:13:36.013Z,12.75
2023-02-08T09:14:38.697Z,11.25
2023-02-08T09:15:41.559Z,11.44
2023-02-08T09:16:44.246Z,11.72
2023-02-08T09:17:46.816Z,13.25
2023-02-08T09:18:49.372Z,12.18
2023-02-08T09:19:52.238Z,15.31
2023-02-08T09:20:54.902Z,12.46
2023-02-08T09:21:57.777Z,12.74
2023-02-08T09:23:00.582Z,12.24
2023-02-08T09:24:03.249Z,14.09
2023-02-08T09:25:05.804Z,15.87
2023-02-08T09:26:08.680Z,12.73
2023-02-08T09:27:11.566Z,15.82
2023-02-08T09:28:14.025Z,15.10
2023-02-08T09:29:16.716Z,12.24
2023-02-08T09:30:19.348Z,11.76
2023-02-08T09:31:22.440Z,13.91
2023-02-08T09:32:25.814Z,12.81
2023-02-08T09:33:29.227Z,14.11
2023-02-08T09:34:32.077Z,12.40
2023-02-08T09:35:34.544Z,13.88
2023-02-08T09:36:37.285Z,11.68
2023-02-08T09:37:39.990Z,10.85
2023-02-08T09:38:42.668Z,11.05
2023-02-08T09:39:45.326Z,11.59
2023-02-08T09:40:48.115Z,12.12
2023-02-08T09:41:53.359Z,11.82
2023-02-08T09:42:56.198Z,11.80
2023-02-08T09:43:59.279Z,11.71
2023-02-08T09:45:02.174Z,11.00
2023-02-08T09:46:05.058Z,15.04
2023-02-08T09:47:07.594Z,13.18
2023-02-08T09:48:10.368Z,13.93
2023-02-08T09:49:13.280Z,13.29
2023-02-08T09:50:15.946Z,10.19
2023-02-08T09:51:18.688Z,11.86
2023-02-08T09:52:21.809Z,10.53
2023-02-08T09:53:24.596Z,14.24
2023-02-08T09:54:27.208Z,14.09
2023-02-08T09:55:29.877Z,13.83
2023-02-08T09:56:32.555Z,12.72
2023-02-08T09:57:35.454Z,14.50
2023-02-08T09:58:38.099Z,12.77
2023-02-08T09:59:40.876Z,12.07
2023-02-08T10:00:43.797Z,9.15
2023-02-08T10:01:46.622Z,9.19
2023-02-08T10:02:49.298Z,11.10
2023-02-08T10:03:51.958Z,11.35
2023-02-08T10:04:54.638Z,11.73
2023-02-08T10:05:57.278Z,13.75
2023-02-08T10:06:59.959Z,11.36
2023-02-08T10:08:02.541Z,11.66
2023-02-08T10:09:05.211Z,13.42
2023-02-08T10:10:07.900Z,11.23
2023-02-08T10:11:10.669Z,10.02
2023-02-08T10:12:13.421Z,11.71
2023-02-08T10:13:16.087Z,12.50
2023-02-08T10:14:18.858Z,13.03
2023-02-08T10:15:21.632Z,10.45
2023-02-08T10:16:24.350Z,12.36
2023-02-08T10:17:26.965Z,12.68
2023-02-08T10:18:30.038Z,11.20
2023-02-08T10:19:32.914Z,12.80
2023-02-08T10:20:35.499Z,12.10
2023-02-08T10:21:38.061Z,12.01
2023-02-08T10:22:40.830Z,9.65
2023-02-08T10:23:43.399Z,11.42
2023-02-08T10:24:45.977Z,9.56
2023-02-08T10:25:48.646Z,12.80
2023-02-08T10:26:51.323Z,10.15
2023-02-08T10:27:53.780Z,9.82
2023-02-08T10:28:56.766Z,12.98
2023-02-08T10:29:59.450Z,11.49
2023-02-08T10:31:02.342Z,13.92
2023-02-08T10:32:05.054Z,12.12
2023-02-08T10:33:07.872Z,11.04
2023-02-08T10:34:11.238Z,10.16
2023-02-08T10:35:13.979Z,12.06
2023-02-08T10:36:16.967Z,8.98
2023-02-08T10:37:19.539Z,11.59
2023-02-08T10:38:22.449Z,11.17
2023-02-08T10:39:25.192Z,11.74
2023-02-08T10:40:28.167Z,11.82
2023-02-08T10:41:30.835Z,14.26
2023-02-08T10:42:33.740Z,16.61
2023-02-08T10:43:36.985Z,11.88
2023-02-08T10:44:39.791Z,14.36
2023-02-08T10:45:43.170Z,15.37
2023-02-08T10:46:46.016Z,12.78
2023-02-08T10:47:48.955Z,11.64
2023-02-08T10:48:51.963Z,13.10
2023-02-08T10:49:54.673Z,13.92
2023-02-08T10:50:57.283Z,11.48
2023-02-08T10:52:00.067Z,13.04
2023-02-08T10:53:02.914Z,13.16
2023-02-08T10:54:05.660Z,13.24
2023-02-08T10:55:08.530Z,14.54
2023-02-08T10:56:11.523Z,14.29
2023-02-08T10:57:14.377Z,13.26
2023-02-08T10:58:17.432Z,14.28
2023-02-08T10:59:20.345Z,12.52
2023-02-08T11:00:23.014Z,13.59
2023-02-08T11:01:26.020Z,13.16
2023-02-08T11:02:28.939Z,11.95
2023-02-08T11:03:32.140Z,13.52
2023-02-08T11:04:34.730Z,12.16
2023-02-08T11:05:37.367Z,12.90
2023-02-08T11:06:40.343Z,13.05
2023-02-08T11:07:43.112Z,14.07
2023-02-08T11:08:46.492Z,11.20
2023-02-08T11:09:49.174Z,10.85
2023-02-08T11:10:52.153Z,13.92
2023-02-08T11:11:54.830Z,14.78
2023-02-08T11:12:57.896Z,14.85
2023-02-08T11:14:01.393Z,14.75
2023-02-08T11:15:04.272Z,18.21
2023-02-08T11:16:06.787Z,11.58
2023-02-08T11:17:09.793Z,12.52
2023-02-08T11:18:13.297Z,16.61
2023-02-08T11:19:16.376Z,14.54
2023-02-08T11:20:19.446Z,14.54
2023-02-08T11:21:21.933Z,14.18
2023-02-08T11:22:24.852Z,14.60
2023-02-08T11:23:27.968Z,15.42
2023-02-08T11:24:30.532Z,14.45
2023-02-08T11:25:35.815Z,12.13
2023-02-08T11:26:38.018Z,13.91
2023-02-08T11:27:41.207Z,13.54
2023-02-08T11:28:44.684Z,15.00
2023-02-08T11:29:48.176Z,12.13
2023-02-08T11:30:51.296Z,12.25
2023-02-08T11:31:54.386Z,11.98
2023-02-08T11:32:57.424Z,15.66
2023-02-08T11:34:00.406Z,13.58
2023-02-08T11:35:03.364Z,13.11
2023-02-08T11:36:06.349Z,15.75
2023-02-08T11:37:09.424Z,11.09
2023-02-08T11:38:12.218Z,11.59
2023-02-08T11:39:14.883Z,14.69
2023-02-08T11:40:17.567Z,10.41
2023-02-08T11:41:20.333Z,11.08
2023-02-08T11:42:23.486Z,11.95
2023-02-08T11:43:26.575Z,12.45
2023-02-08T11:44:29.557Z,10.47
2023-02-08T11:45:32.348Z,14.65
2023-02-08T11:46:35.504Z,13.81
2023-02-08T11:47:38.277Z,12.38
2023-02-08T11:48:41.167Z,14.84
2023-02-08T11:49:43.750Z,11.12
2023-02-08T11:50:46.511Z,14.50
2023-02-08T11:51:49.377Z,13.85
2023-02-08T11:52:52.559Z,11.64
2023-02-08T11:53:55.130Z,12.50
2023-02-08T11:54:58.308Z,10.28
2023-02-08T11:56:01.430Z,9.24
2023-02-08T11:57:04.564Z,11.35
2023-02-08T11:58:07.798Z,14.33
2023-02-08T11:59:10.629Z,12.75
2023-02-08T12:00:13.453Z,13.52
2023-02-08T12:01:16.077Z,11.97
2023-02-08T12:02:18.698Z,13.75
2023-02-08T12:03:21.459Z,15.20
2023-02-08T12:04:24.593Z,12.85
2023-02-08T12:05:27.370Z,12.08
2023-02-08T12:06:30.218Z,12.25
2023-02-08T12:07:33.407Z,12.10
2023-02-08T12:08:36.708Z,11.70
2023-02-08T12:09:39.372Z,12.66
2023-02-08T12:10:42.154Z,13.63
2023-02-08T12:11:44.727Z,11.88
2023-02-08T12:12:47.387Z,11.34
2023-02-08T12:13:50.258Z,11.24
2023-02-08T12:14:53.113Z,15.05
2023-02-08T12:15:58.913Z,12.88
2023-02-08T12:17:00.546Z,11.83
2023-02-08T12:18:03.415Z,9.98
2023-02-08T12:19:06.574Z,12.25
2023-02-08T12:20:09.279Z,10.95
2023-02-08T12:21:11.927Z,11.23
2023-02-08T12:22:15.091Z,11.14
2023-02-08T12:23:18.176Z,10.33
2023-02-08T12:24:21.109Z,8.38
2023-02-08T12:25:24.282Z,13.21
2023-02-08T12:26:27.095Z,12.47
2023-02-08T12:27:30.007Z,9.48
2023-02-08T12:28:32.843Z,13.07
2023-02-08T12:29:46.862Z,11.92
2023-02-08T12:30:39.767Z,10.95
2023-02-08T12:31:42.440Z,11.91
2023-02-08T12:32:45.112Z,9.62
2023-02-08T12:33:47.999Z,10.92
2023-02-08T12:34:50.825Z,13.96
2023-02-08T12:36:03.576Z,14.03
2023-02-08T12:36:58.088Z,11.01
2023-02-08T12:38:01.169Z,10.64
2023-02-08T12:39:18.357Z,10.13
2023-02-08T12:40:08.219Z,11.93
2023-02-08T12:41:11.125Z,10.70
2023-02-08T12:42:13.923Z,11.36
2023-02-08T12:43:17.178Z,9.99
2023-02-08T12:44:19.986Z,11.37
2023-02-08T12:45:23.085Z,10.25
2023-02-08T12:46:26.513Z,12.94
2023-02-08T12:47:29.421Z,12.34
2023-02-08T12:48:32.407Z,12.49
2023-02-08T12:49:35.582Z,12.08
2023-02-08T12:50:38.559Z,13.24
2023-02-08T12:51:41.443Z,13.68
2023-02-08T12:52:44.816Z,11.20
2023-02-08T12:53:47.599Z,10.80
2023-02-08T12:54:50.153Z,11.04
2023-02-08T12:55:52.819Z,13.93
2023-02-08T12:57:02.178Z,11.17
2023-02-08T12:57:59.806Z,13.95
2023-02-08T12:59:13.105Z,13.18
2023-02-08T13:00:06.892Z,12.19
2023-02-08T13:01:09.699Z,10.28
2023-02-08T13:02:12.324Z,11.02
2023-02-08T13:03:15.091Z,10.32
2023-02-08T13:04:17.768Z,12.92
2023-02-08T13:05:20.535Z,11.57
2023-02-08T13:06:23.318Z,9.07
2023-02-08T13:07:25.990Z,12.01
2023-02-08T13:08:28.832Z,12.66
2023-02-08T13:09:33.442Z,12.40
2023-02-08T13:10:36.529Z,10.24
2023-02-08T13:11:39.425Z,15.04
2023-02-08T13:12:42.591Z,11.08
2023-02-08T13:13:45.664Z,11.00
2023-02-08T13:14:48.602Z,14.56
2023-02-08T13:15:52.004Z,14.37
2023-02-08T13:16:55.013Z,14.01
2023-02-08T13:17:57.596Z,15.54
2023-02-08T13:19:00.453Z,14.08
2023-02-08T13:20:03.522Z,11.57
2023-02-08T13:21:06.617Z,14.50
2023-02-08T13:22:09.884Z,11.27
2023-02-08T13:23:12.890Z,13.18
2023-02-08T13:24:17.702Z,13.81
2023-02-08T13:25:20.065Z,12.55
2023-02-08T13:26:23.030Z,11.72
2023-02-08T13:27:26.005Z,13.22
2023-02-08T13:28:28.653Z,13.19
2023-02-08T13:29:31.460Z,12.21
2023-02-08T13:30:34.487Z,12.27
2023-02-08T13:31:37.620Z,9.73
2023-02-08T13:32:43.571Z,13.36
2023-02-08T13:34:00.558Z,11.98
2023-02-08T13:34:48.710Z,12.06
2023-02-08T13:35:51.271Z,10.44
2023-02-08T13:36:54.234Z,14.73
2023-02-08T13:37:57.125Z,13.90
2023-02-08T13:38:59.897Z,15.83
2023-02-08T13:40:02.887Z,15.43